Time;durP1;ratioP1;P1;durP2;ratioP2;P2;SDS_P1;SDS_P2;PMS_P1;PMS_P2;Temp;Humidity;BMP_temperature;BMP_pressure;BME280_temperature;BME280_humidity;BME280_pressure;Samples;Min_cycle;Max_cycle;Signal;HPM_P1;HPM_P2
2022/11/08 00:01:46;;;;;;;46.45;27.73;;;;;;;10.91;91.97;101160.00;4967544;28;20127;-75
2022/11/08 00:04:14;;;;;;;46.58;29.52;;;;;;;10.64;91.26;101102.84;4967085;28;20131;-76
2022/11/08 00:14:53;;;;;;;42.95;27.77;;;;;;;10.10;91.49;100996.41;4966759;28;20057;-74
2022/11/08 00:17:20;;;;;;;36.08;26.23;;;;;;;10.98;91.46;101163.59;4970368;28;20054;-74
2022/11/08 00:19:46;;;;;;;36.75;24.63;;;;;;;10.24;91.62;101017.53;4969155;28;20054;-75
2022/11/08 00:22:12;;;;;;;45.95;27.48;;;;;;;10.94;91.73;101154.78;4961002;28;20113;-74
2022/11/08 00:24:38;;;;;;;40.80;25.88;;;;;;;10.24;91.56;101030.66;4969603;28;20078;-75
2022/11/08 00:27:15;;;;;;;39.72;26.30;;;;;;;11.05;91.45;101164.50;4971587;28;20069;-74
2022/11/08 00:29:41;;;;;;;37.53;26.65;;;;;;;10.38;91.59;101062.31;4952756;28;20061;-75
2022/11/08 00:32:09;;;;;;;41.22;28.90;;;;;;;10.27;91.65;101026.31;4970651;28;20066;-75
2022/11/08 00:34:35;;;;;;;39.97;27.00;;;;;;;10.98;92.13;101147.84;4970469;28;20146;-74
2022/11/08 00:37:01;;;;;;;35.47;25.33;;;;;;;10.95;92.60;101140.78;4969920;28;20046;-76
2022/11/08 00:39:26;;;;;;;38.58;27.58;;;;;;;10.23;92.36;101018.38;4968517;28;20030;-74
2022/11/08 00:41:52;;;;;;;36.33;25.98;;;;;;;10.29;92.20;101032.47;4971282;28;20042;-75
2022/11/08 00:44:17;;;;;;;36.83;26.30;;;;;;;10.39;92.14;101043.09;4969108;28;20174;-74
2022/11/08 00:46:43;;;;;;;41.97;26.23;;;;;;;10.88;92.14;101112.69;4970791;28;20078;-75
2022/11/08 00:49:09;;;;;;;37.10;25.95;;;;;;;11.05;92.12;101154.91;4964631;28;20470;-75
2022/11/08 00:51:35;;;;;;;46.90;27.80;;;;;;;10.19;92.09;100991.25;4968673;28;20051;-75
2022/11/08 00:54:01;;;;;;;35.63;26.80;;;;;;;10.99;92.73;101141.72;4952697;28;20065;-74
2022/11/08 00:56:27;;;;;;;44.25;27.88;;;;;;;10.13;91.77;101018.28;4978150;28;20102;-76
2022/11/08 00:58:52;;;;;;;43.33;28.30;;;;;;;10.99;90.81;101147.84;4969054;28;20055;-75
2022/11/08 01:01:20;;;;;;;48.22;28.25;;;;;;;11.04;91.34;101147.00;4970115;28;20066;-76
2022/11/08 01:03:47;;;;;;;40.53;28.70;;;;;;;11.06;91.51;101137.41;4969479;28;20054;-74
2022/11/08 01:06:14;;;;;;;57.33;29.83;;;;;;;10.34;91.51;101028.16;4958758;28;20134;-74
2022/11/08 01:08:40;;;;;;;40.45;29.23;;;;;;;10.34;91.32;101024.66;4969377;28;20030;-76
2022/11/08 01:11:09;;;;;;;40.58;27.58;;;;;;;11.02;92.07;101152.22;4970065;28;20059;-76
2022/11/08 01:13:35;;;;;;;40.90;28.05;;;;;;;11.02;90.98;101135.59;4969782;28;20487;-75
2022/11/08 01:16:06;;;;;;;49.40;27.45;;;;;;;11.02;91.62;101144.34;4969586;28;20049;-74
2022/11/08 01:18:33;;;;;;;39.28;28.77;;;;;;;10.92;91.18;101118.88;4950759;28;20457;-73
2022/11/08 01:20:58;;;;;;;42.30;27.60;;;;;;;10.23;91.44;101000.03;4970291;28;20039;-74
2022/11/08 01:23:24;;;;;;;37.20;26.77;;;;;;;11.08;89.91;101143.56;4969532;28;20173;-74
2022/11/08 01:25:49;;;;;;;36.65;28.10;;;;;;;10.53;90.15;101037.09;4968628;28;20478;-74
2022/11/08 01:28:15;;;;;;;40.35;26.63;;;;;;;11.09;90.86;101140.03;4967993;28;20058;-74
2022/11/08 01:30:42;;;;;;;39.38;24.48;;;;;;;10.41;89.77;101009.88;4969421;28;20046;-74
2022/11/08 01:33:08;;;;;;;36.10;24.67;;;;;;;10.34;89.68;101022.03;4970063;28;20050;-75
2022/11/08 01:35:35;;;;;;;39.03;24.65;;;;;;;10.29;89.96;100993.13;4969323;28;20097;-74
2022/11/08 01:38:01;;;;;;;35.80;24.83;;;;;;;11.16;90.17;101144.50;4969264;28;20155;-74
2022/11/08 01:40:28;;;;;;;34.55;23.33;;;;;;;11.12;89.97;101138.34;4968393;28;20064;-74
2022/11/08 01:42:54;;;;;;;32.92;19.67;;;;;;;11.18;89.25;101140.13;4967375;28;20031;-74
2022/11/08 01:45:57;;;;;;;29.88;19.98;;;;;;;11.18;88.76;101145.38;4968624;28;20042;-75
2022/11/08 01:48:26;;;;;;;30.67;20.98;;;;;;;11.07;89.25;101140.03;4952184;28;20523;-73
2022/11/08 01:50:53;;;;;;;38.13;22.73;;;;;;;11.08;89.50;101144.44;4965033;28;20033;-75
2022/11/08 01:53:18;;;;;;;24.50;19.92;;;;;;;10.37;89.68;101024.69;4967663;28;20051;-75
2022/11/08 01:55:45;;;;;;;30.88;20.15;;;;;;;10.29;89.45;101001.00;4968806;28;20058;-75
2022/11/08 01:58:16;;;;;;;26.63;20.02;;;;;;;11.17;89.36;101133.13;4969219;28;20035;-74
2022/11/08 02:00:42;;;;;;;29.35;19.38;;;;;;;11.03;89.14;101112.00;4968643;28;20057;-75
2022/11/08 02:03:11;;;;;;;33.42;20.45;;;;;;;10.37;89.82;100985.34;4969921;28;20034;-75
2022/11/08 02:05:38;;;;;;;32.60;21.17;;;;;;;10.31;90.18;101015.03;4969001;28;20053;-75
2022/11/08 02:08:04;;;;;;;28.77;19.77;;;;;;;11.15;90.26;101142.75;4964612;28;20043;-75
2022/11/08 02:10:41;;;;;;;27.52;19.90;;;;;;;11.16;89.75;101148.00;4966909;28;20055;-75
2022/11/08 02:13:12;;;;;;;28.45;19.02;;;;;;;11.15;89.68;101127.84;4968382;28;20129;-76
2022/11/08 02:15:38;;;;;;;30.05;21.10;;;;;;;10.93;89.68;101097.00;4961488;28;20558;-75
2022/11/08 02:18:04;;;;;;;29.35;20.20;;;;;;;10.50;90.00;101025.72;4969108;28;20026;-75
2022/11/08 02:20:30;;;;;;;28.08;20.45;;;;;;;11.02;89.41;101133.84;4966889;28;20118;-74
2022/11/08 02:23:19;;;;;;;28.08;19.55;;;;;;;10.50;89.83;101025.72;4968168;28;20046;-74
2022/11/08 02:25:45;;;;;;;33.33;21.35;;;;;;;10.44;90.58;101034.41;4968182;28;20103;-76
2022/11/08 02:28:10;;;;;;;28.65;19.80;;;;;;;10.99;90.03;101136.47;4968153;28;20051;-73
2022/11/08 02:30:37;;;;;;;25.67;19.83;;;;;;;10.85;89.64;101112.69;4967386;28;20706;-74
2022/11/08 02:33:20;;;;;;;29.17;21.48;;;;;;;10.72;90.44;101101.19;4951232;28;20487;-76
2022/11/08 02:35:52;;;;;;;34.97;20.35;;;;;;;10.98;90.99;101139.97;4968698;28;20047;-76
2022/11/08 02:38:18;;;;;;;30.13;20.73;;;;;;;10.97;91.09;101143.44;4968085;28;20502;-72
2022/11/08 02:40:48;;;;;;;33.53;21.67;;;;;;;10.15;90.73;101013.94;4967201;28;20049;-77
2022/11/08 02:43:14;;;;;;;25.30;18.63;;;;;;;10.82;90.87;101109.16;4966368;28;20126;-73
2022/11/08 02:45:39;;;;;;;32.78;20.10;;;;;;;10.93;91.32;101137.28;4968434;28;20698;-73
2022/11/08 02:48:05;;;;;;;27.52;21.13;;;;;;;10.28;90.44;101012.38;4963622;28;20172;-74
2022/11/08 02:50:31;;;;;;;26.27;20.38;;;;;;;10.40;91.05;101031.75;4966094;28;20138;-72
2022/11/08 02:52:57;;;;;;;38.78;21.35;;;;;;;10.90;90.47;101137.22;4966768;28;20125;-73
2022/11/08 02:55:22;;;;;;;28.88;20.10;;;;;;;11.06;90.42;101146.16;4966753;28;20069;-74
2022/11/08 02:57:47;;;;;;;28.13;19.13;;;;;;;10.50;90.27;101041.47;4965777;28;20177;-74
2022/11/08 03:00:13;;;;;;;30.77;21.40;;;;;;;11.03;89.67;101122.50;4969030;28;20043;-73
2022/11/08 03:02:39;;;;;;;33.33;21.05;;;;;;;10.97;90.07;101135.56;4972911;28;20039;-73
2022/11/08 03:05:05;;;;;;;29.13;18.35;;;;;;;10.25;90.13;101014.03;4969652;28;20054;-75
2022/11/08 03:07:30;;;;;;;33.03;22.00;;;;;;;10.39;90.23;101038.72;4962117;28;20030;-73
2022/11/08 03:09:55;;;;;;;33.35;21.02;;;;;;;11.10;89.79;101144.44;4965100;28;20047;-74
2022/11/08 03:12:21;;;;;;;31.08;19.83;;;;;;;10.98;90.55;101122.44;4958463;28;20041;-74
2022/11/08 03:14:46;;;;;;;28.63;19.30;;;;;;;11.12;90.54;101142.69;4967954;28;20034;-74
2022/11/08 03:17:12;;;;;;;30.55;19.95;;;;;;;11.05;91.14;101136.53;4967681;28;20061;-74
2022/11/08 03:19:37;;;;;;;24.98;18.38;;;;;;;11.13;90.55;101153.22;4966884;28;20065;-74
2022/11/08 03:22:03;;;;;;;32.15;21.77;;;;;;;10.28;90.57;100996.63;4967416;28;20054;-74
2022/11/08 03:24:28;;;;;;;29.33;21.13;;;;;;;10.99;90.48;101149.59;4968024;28;20055;-75
2022/11/08 03:26:53;;;;;;;27.95;19.50;;;;;;;11.10;90.97;101147.06;4968342;28;20027;-74
2022/11/08 03:29:19;;;;;;;32.72;20.75;;;;;;;9.71;91.30;100922.53;4966685;28;20050;-74
2022/11/08 03:31:45;;;;;;;28.67;18.48;;;;;;;10.89;91.11;101124.97;4967237;28;20051;-75
2022/11/08 03:34:10;;;;;;;24.10;18.75;;;;;;;9.86;90.78;100955.06;4965934;28;20379;-74
2022/11/08 03:36:36;;;;;;;26.70;18.08;;;;;;;10.83;91.20;101118.78;4967412;28;20046;-74
2022/11/08 03:39:01;;;;;;;37.55;20.50;;;;;;;10.10;91.84;101001.66;4966704;28;20042;-77
2022/11/08 03:41:27;;;;;;;29.63;20.67;;;;;;;10.98;91.25;101146.09;4967176;28;20147;-75
2022/11/08 03:43:52;;;;;;;39.53;20.23;;;;;;;10.99;91.42;101137.31;4965759;28;20130;-76
2022/11/08 03:46:18;;;;;;;27.25;20.67;;;;;;;10.99;91.36;101144.34;4967010;28;20055;-75
2022/11/08 03:48:43;;;;;;;29.75;21.15;;;;;;;10.88;91.58;101144.22;4965849;28;20082;-75
2022/11/08 03:51:08;;;;;;;30.48;21.83;;;;;;;10.69;91.66;101103.75;4958414;28;20068;-74
2022/11/08 03:53:34;;;;;;;31.40;22.27;;;;;;;10.53;92.33;101086.09;4971527;28;20062;-75
2022/11/08 03:56:00;;;;;;;36.72;20.38;;;;;;;10.84;91.83;101139.81;4971458;28;20054;-75
2022/11/08 03:58:26;;;;;;;36.75;22.92;;;;;;;10.07;92.23;101004.25;4970930;28;20051;-76
2022/11/08 04:00:51;;;;;;;41.55;23.05;;;;;;;10.48;92.06;101067.66;4970371;28;20045;-77
2022/11/08 04:03:16;;;;;;;30.38;22.35;;;;;;;10.82;92.20;101146.78;4971447;28;20035;-76
2022/11/08 04:05:42;;;;;;;37.17;23.90;;;;;;;10.21;91.68;101025.34;4972053;28;20061;-74
2022/11/08 04:08:07;;;;;;;33.28;21.00;;;;;;;10.68;91.78;101127.38;4964100;28;20047;-76
2022/11/08 04:10:33;;;;;;;34.80;23.20;;;;;;;10.67;92.43;101104.63;4970166;28;20043;-76
2022/11/08 04:15:45;;;;;;;38.67;22.55;;;;;;;10.75;92.06;101113.47;4970898;28;20062;-76
2022/11/08 04:21:17;;;;;;;37.22;21.58;;;;;;;10.18;92.19;101028.81;4969888;28;20084;-75
2022/11/08 04:23:43;;;;;;;37.13;24.98;;;;;;;10.07;92.42;101001.63;4971310;28;20054;-76
2022/11/08 04:26:12;;;;;;;44.60;22.52;;;;;;;10.87;92.27;101128.47;4970798;28;20047;-75
2022/11/08 04:28:39;;;;;;;40.45;23.58;;;;;;;10.77;92.53;101128.38;4970785;28;20162;-75
2022/11/08 04:31:08;;;;;;;40.85;24.83;;;;;;;9.97;92.44;100992.75;4970007;28;20144;-74
2022/11/08 04:33:34;;;;;;;43.15;26.23;;;;;;;9.79;91.79;100966.34;4970293;28;20042;-76
2022/11/08 04:36:05;;;;;;;41.22;25.13;;;;;;;10.86;92.03;101121.44;4971272;28;20046;-77
2022/11/08 04:38:31;;;;;;;31.65;22.85;;;;;;;10.71;91.66;101104.66;4970261;28;20054;-75
2022/11/08 04:41:02;;;;;;;39.38;25.90;;;;;;;9.87;91.63;100957.69;4968436;28;20483;-76
2022/11/08 04:43:28;;;;;;;37.22;25.92;;;;;;;10.54;92.10;101069.50;4969066;28;20051;-74
2022/11/08 04:46:02;;;;;;;48.75;25.90;;;;;;;10.90;92.14;101131.97;4969260;28;20047;-73
2022/11/08 04:48:28;;;;;;;39.83;24.50;;;;;;;10.05;91.97;101001.59;4969885;28;20773;-74
2022/11/08 04:50:53;;;;;;;35.70;22.27;;;;;;;10.63;91.99;101093.22;4969813;28;20038;-75
2022/11/08 04:53:19;;;;;;;31.50;23.42;;;;;;;10.12;91.98;101005.16;4970203;28;20055;-75
2022/11/08 04:55:45;;;;;;;40.38;23.90;;;;;;;10.11;92.20;100992.91;4970355;28;20469;-75
2022/11/08 04:58:10;;;;;;;41.08;24.10;;;;;;;10.69;92.28;101081.88;4969210;28;20129;-75
2022/11/08 05:00:36;;;;;;;35.28;25.30;;;;;;;10.90;92.07;101118.84;4969129;28;20051;-74
2022/11/08 05:03:01;;;;;;;42.83;23.75;;;;;;;11.03;91.80;101132.09;4967941;28;20038;-75
2022/11/08 05:05:27;;;;;;;32.90;23.70;;;;;;;10.28;92.05;101011.47;4969983;28;20043;-75
2022/11/08 05:07:53;;;;;;;34.45;22.95;;;;;;;11.02;91.38;101141.72;4968047;28;20470;-74
2022/11/08 05:10:19;;;;;;;41.60;24.17;;;;;;;11.01;90.88;101126.84;4965834;28;20487;-75
2022/11/08 05:12:44;;;;;;;34.28;22.70;;;;;;;10.29;91.36;101008.88;4964337;28;20170;-76
2022/11/08 05:15:11;;;;;;;38.58;23.88;;;;;;;10.47;90.60;101031.81;4969061;28;20085;-73
2022/11/08 05:17:36;;;;;;;33.97;23.75;;;;;;;10.47;90.38;101031.81;4969380;28;20126;-75
2022/11/08 05:25:37;;;;;;;34.50;21.95;;;;;;;11.12;90.38;101130.47;4969273;28;20062;-75
2022/11/08 05:28:03;;;;;;;30.60;21.27;;;;;;;10.50;89.75;101023.09;4967574;28;20105;-74
2022/11/08 05:30:28;;;;;;;37.28;22.02;;;;;;;11.07;90.66;101134.78;4968065;28;20059;-75
2022/11/08 05:32:54;;;;;;;38.03;21.67;;;;;;;10.41;89.91;101000.25;4969645;28;20061;-74
2022/11/08 05:35:21;;;;;;;37.08;20.83;;;;;;;11.16;90.47;101150.63;4968859;28;20054;-75
2022/11/08 05:37:48;;;;;;;35.58;20.77;;;;;;;10.53;90.00;101023.09;4968640;28;20173;-74
2022/11/08 05:40:14;;;;;;;38.15;21.55;;;;;;;10.71;89.89;101048.66;4966138;28;20065;-74
2022/11/08 05:42:39;;;;;;;34.80;20.17;;;;;;;11.22;90.51;101154.19;4966424;28;20058;-74
2022/11/08 05:45:05;;;;;;;40.17;22.50;;;;;;;11.36;89.97;101163.06;4968828;28;20057;-74
2022/11/08 05:47:30;;;;;;;31.15;21.25;;;;;;;10.64;89.60;101018.84;4968271;28;20042;-74
2022/11/08 05:49:56;;;;;;;34.22;21.00;;;;;;;11.25;89.44;101114.81;4977807;28;20053;-73
2022/11/08 05:52:21;;;;;;;58.35;20.90;;;;;;;11.35;89.37;101135.91;4968038;28;20133;-73
2022/11/08 05:54:47;;;;;;;30.67;20.13;;;;;;;10.82;89.58;101040.91;4967343;28;20078;-73
2022/11/08 05:57:12;;;;;;;34.95;21.73;;;;;;;10.82;89.98;101038.28;4967839;28;20085;-75
2022/11/08 05:59:37;;;;;;;44.20;21.83;;;;;;;11.47;89.35;101164.06;4965399;28;20435;-76
2022/11/08 06:02:03;;;;;;;39.75;20.42;;;;;;;11.57;89.38;101167.63;4962353;28;20414;-76
2022/11/08 06:04:28;;;;;;;37.78;22.42;;;;;;;11.43;89.88;101167.50;4967776;28;20051;-75
2022/11/08 06:06:54;;;;;;;40.95;21.95;;;;;;;10.86;89.77;101033.03;4968788;28;20073;-74
2022/11/08 06:09:19;;;;;;;36.63;20.77;;;;;;;11.37;89.49;101120.16;4967937;28;20762;-75
2022/11/08 06:11:45;;;;;;;33.97;23.80;;;;;;;11.49;90.16;101138.63;4967219;28;20513;-76
2022/11/08 06:14:10;;;;;;;38.80;21.50;;;;;;;10.31;88.62;100936.34;4967226;28;20051;-77
2022/11/08 06:16:35;;;;;;;32.22;24.02;;;;;;;11.57;88.60;101136.97;4967282;28;20059;-75
2022/11/08 06:19:01;;;;;;;35.47;22.98;;;;;;;11.67;88.88;101168.59;4966629;28;20043;-74
2022/11/08 06:21:26;;;;;;;38.35;21.27;;;;;;;11.76;88.63;101174.78;4967810;28;20155;-74
2022/11/08 06:23:53;;;;;;;38.67;21.08;;;;;;;11.87;88.25;101174.91;4968671;28;20027;-74
2022/11/08 06:26:20;;;;;;;33.92;20.80;;;;;;;11.35;87.82;101095.59;4967729;28;20059;-74
2022/11/08 06:28:45;;;;;;;45.08;22.13;;;;;;;11.10;87.63;101023.63;4966702;28;20074;-75
2022/11/08 06:31:11;;;;;;;36.13;22.17;;;;;;;11.33;87.91;101087.72;4967076;28;20419;-74
2022/11/08 06:33:36;;;;;;;37.80;23.17;;;;;;;11.82;88.47;101164.31;4968331;28;20078;-74
2022/11/08 06:36:02;;;;;;;29.38;20.15;;;;;;;11.13;87.33;101032.41;4967625;28;20125;-74
2022/11/08 06:38:27;;;;;;;38.30;24.27;;;;;;;11.14;87.54;101059.53;4969308;28;20053;-74
2022/11/08 06:40:53;;;;;;;37.15;23.05;;;;;;;10.75;88.28;101046.09;4964792;28;20480;-74
2022/11/08 06:43:18;;;;;;;46.67;24.48;;;;;;;11.41;88.61;101151.72;4966446;28;20076;-74
2022/11/08 06:45:44;;;;;;;38.97;24.00;;;;;;;11.74;88.31;101178.28;4960679;28;20043;-75
2022/11/08 06:48:09;;;;;;;45.13;23.88;;;;;;;11.74;88.23;101163.38;4967821;28;20041;-75
2022/11/08 06:50:35;;;;;;;54.63;23.13;;;;;;;11.86;87.71;101161.72;4963657;28;20093;-75
2022/11/08 06:53:04;;;;;;;48.90;24.05;;;;;;;11.93;87.61;101185.44;4965364;28;20054;-77
2022/11/08 06:55:31;;;;;;;46.70;24.35;;;;;;;11.83;87.55;101155.56;4963926;28;20154;-76
2022/11/08 06:57:56;;;;;;;48.53;25.90;;;;;;;11.51;85.99;101076.47;4967464;28;20549;-76
2022/11/08 07:00:22;;;;;;;48.95;27.77;;;;;;;11.65;85.88;101118.63;4967007;28;20039;-76
2022/11/08 07:02:56;;;;;;;50.67;26.25;;;;;;;11.97;86.46;101179.34;4967172;28;20086;-75
2022/11/08 07:05:22;;;;;;;48.28;27.17;;;;;;;11.44;86.63;101095.69;4965860;28;20158;-75
2022/11/08 07:07:50;;;;;;;40.60;25.30;;;;;;;11.88;86.16;101176.66;4966888;28;20520;-76
2022/11/08 07:10:22;;;;;;;44.08;24.48;;;;;;;11.64;87.25;101184.34;4960603;28;20533;-76
2022/11/08 07:12:49;;;;;;;44.88;26.40;;;;;;;11.68;86.73;101157.19;4958076;28;20531;-76
2022/11/08 07:15:15;;;;;;;43.38;24.98;;;;;;;11.48;87.39;101149.16;4966627;28;20505;-76
2022/11/08 07:17:41;;;;;;;49.92;26.52;;;;;;;10.84;87.21;101047.03;4967893;28;20031;-76
2022/11/08 07:20:07;;;;;;;38.55;24.50;;;;;;;11.05;87.66;101060.38;4967728;28;20066;-76
2022/11/08 07:22:33;;;;;;;55.22;28.52;;;;;;;10.97;86.71;101031.38;4949555;28;20093;-76
2022/11/08 07:24:58;;;;;;;45.08;28.00;;;;;;;11.92;86.40;101167.06;4965660;28;20039;-74
2022/11/08 07:27:24;;;;;;;42.28;27.17;;;;;;;11.31;87.61;101130.63;4967434;28;20107;-76
2022/11/08 07:29:49;;;;;;;42.42;28.75;;;;;;;11.88;86.51;101165.25;4968104;28;20077;-75
2022/11/08 07:32:14;;;;;;;46.28;27.35;;;;;;;11.52;87.57;101185.09;4967324;28;20051;-77
2022/11/08 07:34:40;;;;;;;35.88;25.75;;;;;;;11.10;87.39;101092.78;4966954;28;20483;-76
2022/11/08 07:37:05;;;;;;;38.20;27.85;;;;;;;11.57;88.03;101202.69;4967130;28;20402;-76
2022/11/08 07:39:31;;;;;;;43.35;28.00;;;;;;;11.57;87.55;101168.50;4949727;28;20374;-76
2022/11/08 07:41:56;;;;;;;41.45;33.40;;;;;;;12.06;86.32;101194.31;4968293;28;20046;-77
2022/11/08 07:44:22;;;;;;;47.10;28.92;;;;;;;12.21;86.10;101199.66;4951734;28;20042;-76
2022/11/08 07:46:47;;;;;;;44.30;28.90;;;;;;;11.27;87.25;101102.56;4967268;28;20043;-75
2022/11/08 07:49:13;;;;;;;50.55;27.25;;;;;;;11.88;86.58;101200.31;4967552;28;20498;-75
2022/11/08 07:51:38;;;;;;;56.88;28.02;;;;;;;11.98;86.87;101196.00;4962705;28;20478;-75
2022/11/08 07:54:04;;;;;;;39.95;26.65;;;;;;;12.19;86.31;101197.91;4967075;28;20086;-75
2022/11/08 07:56:31;;;;;;;40.45;27.45;;;;;;;12.38;85.72;101186.59;4965558;28;20039;-76
2022/11/08 07:58:56;;;;;;;45.75;28.02;;;;;;;11.99;85.37;101103.09;4965949;28;20043;-77
2022/11/08 08:01:22;;;;;;;34.80;25.77;;;;;;;12.16;85.81;101195.25;4967151;28;20515;-76
2022/11/08 08:03:47;;;;;;;49.45;29.58;;;;;;;12.08;86.30;101205.75;4967321;28;20050;-78
2022/11/08 08:06:12;;;;;;;48.10;27.67;;;;;;;12.23;85.58;101181.25;4961159;28;20046;-77
2022/11/08 08:08:38;;;;;;;50.47;29.30;;;;;;;12.57;85.17;101206.00;4967326;28;20031;-77
2022/11/08 08:11:04;;;;;;;45.30;29.35;;;;;;;11.70;85.10;101077.44;4940615;28;20418;-76
2022/11/08 08:13:30;;;;;;;51.15;27.95;;;;;;;12.67;85.00;101205.16;4967092;28;20049;-76
2022/11/08 08:15:58;;;;;;;52.60;27.08;;;;;;;12.66;83.79;101173.56;4966506;28;20051;-77
2022/11/08 08:18:24;;;;;;;44.85;28.13;;;;;;;12.11;84.04;101068.94;4967259;28;20047;-76
2022/11/08 08:20:49;;;;;;;40.78;26.63;;;;;;;12.79;83.41;101169.22;4966760;28;20054;-75
2022/11/08 08:23:15;;;;;;;58.83;31.33;;;;;;;12.11;83.68;101057.56;4967424;28;20055;-78
2022/11/08 08:25:40;;;;;;;39.88;28.95;;;;;;;12.50;82.81;101114.69;4949483;28;20058;-76
2022/11/08 08:28:06;;;;;;;38.97;27.17;;;;;;;13.09;83.42;101197.41;4967130;28;20046;-76
2022/11/08 08:30:32;;;;;;;57.50;29.70;;;;;;;12.40;82.82;101057.63;4948303;28;20046;-75
2022/11/08 08:33:09;;;;;;;43.15;26.42;;;;;;;12.64;82.79;101115.63;4967263;28;20051;-74
2022/11/08 08:35:35;;;;;;;44.05;26.45;;;;;;;12.63;82.65;101100.69;4949252;28;20062;-75
2022/11/08 08:38:01;;;;;;;41.35;27.55;;;;;;;13.03;84.12;101198.25;4969394;28;20046;-75
2022/11/08 08:40:27;;;;;;;45.08;28.98;;;;;;;13.05;82.77;101167.53;4968944;28;20514;-75
2022/11/08 08:42:53;;;;;;;53.90;27.15;;;;;;;12.84;82.79;101138.50;4965671;28;20054;-76
2022/11/08 08:45:19;;;;;;;47.83;26.90;;;;;;;13.04;82.44;101144.69;4977885;28;20042;-75
2022/11/08 08:47:49;;;;;;;47.03;27.92;;;;;;;13.41;82.37;101194.81;4969931;28;20088;-76
2022/11/08 08:50:15;;;;;;;45.88;26.88;;;;;;;13.44;82.68;101220.34;4968445;28;20105;-76
2022/11/08 08:52:40;;;;;;;44.17;29.13;;;;;;;13.63;81.85;101219.47;4969792;28;20043;-75
2022/11/08 08:55:06;;;;;;;42.10;29.98;;;;;;;13.06;81.63;101087.63;4969850;28;20050;-75
2022/11/08 08:57:32;;;;;;;41.47;29.42;;;;;;;13.62;81.66;101186.06;4969412;28;20049;-76
2022/11/08 08:59:58;;;;;;;39.63;27.17;;;;;;;13.87;80.92;101207.16;4970460;28;20035;-76
2022/11/08 09:02:23;;;;;;;37.85;27.77;;;;;;;14.03;80.81;101223.84;4974521;28;20046;-74
2022/11/08 09:04:49;;;;;;;47.47;29.38;;;;;;;13.30;79.70;101083.25;4989801;28;20058;-76
2022/11/08 09:07:14;;;;;;;46.05;27.33;;;;;;;13.35;80.43;101081.50;4980886;28;20406;-75
2022/11/08 09:09:40;;;;;;;47.22;27.25;;;;;;;13.71;80.08;101106.06;4969614;28;20395;-75
2022/11/08 09:12:05;;;;;;;44.90;27.40;;;;;;;14.33;78.89;101178.91;4967692;28;20091;-76
2022/11/08 09:14:31;;;;;;;47.58;30.13;;;;;;;13.70;80.01;101104.31;4969722;28;20054;-76
2022/11/08 09:16:56;;;;;;;42.47;27.38;;;;;;;14.63;78.38;101206.13;4969729;28;20475;-75
2022/11/08 09:19:22;;;;;;;38.85;26.08;;;;;;;14.17;79.00;101113.00;4969676;28;20125;-75
2022/11/08 09:21:47;;;;;;;36.78;24.35;;;;;;;14.47;77.59;101106.66;4968951;28;20058;-76
2022/11/08 09:24:13;;;;;;;47.50;26.77;;;;;;;15.00;77.01;101211.22;4969416;28;20085;-76
2022/11/08 09:26:38;;;;;;;45.05;25.25;;;;;;;15.13;77.06;101210.28;4970534;28;20027;-75
2022/11/08 09:29:04;;;;;;;37.55;24.30;;;;;;;14.61;77.11;101118.09;4969330;28;20051;-75
2022/11/08 09:31:29;;;;;;;32.08;21.95;;;;;;;15.41;76.60;101218.06;4967685;28;20479;-75
2022/11/08 09:33:54;;;;;;;36.22;22.55;;;;;;;15.45;75.56;101217.13;4968221;28;20058;-75
2022/11/08 09:36:20;;;;;;;30.58;23.48;;;;;;;15.69;75.41;101205.50;4969971;28;20043;-76
2022/11/08 09:38:45;;;;;;;38.08;23.27;;;;;;;15.14;74.91;101093.06;4969557;28;20110;-76
2022/11/08 09:41:24;;;;;;;31.88;20.75;;;;;;;16.01;74.43;101210.53;4966517;28;20391;-77
2022/11/08 09:44:19;;;;;;;36.63;22.73;;;;;;;16.02;73.45;101203.47;4971160;28;20150;-75
2022/11/08 09:46:54;;;;;;;31.23;18.88;;;;;;;15.95;73.07;101197.34;4969845;28;20061;-77
2022/11/08 09:49:41;;;;;;;37.33;21.40;;;;;;;15.95;74.33;101194.69;4965499;28;20051;-75
2022/11/08 09:52:16;;;;;;;35.30;21.35;;;;;;;16.03;73.66;101191.97;4967629;28;20097;-76
2022/11/08 09:54:45;;;;;;;31.30;19.55;;;;;;;16.21;74.25;101199.72;4968108;28;20453;-75
2022/11/08 09:57:26;;;;;;;32.63;18.58;;;;;;;16.27;73.27;101185.53;4968353;28;20149;-77
2022/11/08 10:00:00;;;;;;;30.17;20.80;;;;;;;16.22;73.68;101175.00;4969021;28;20047;-77
2022/11/08 10:02:26;;;;;;;25.63;17.65;;;;;;;16.25;72.55;101172.31;4966159;28;20093;-75
2022/11/08 10:04:57;;;;;;;35.38;19.33;;;;;;;16.39;72.47;101185.41;4968291;28;20070;-75
2022/11/08 10:07:42;;;;;;;34.10;20.27;;;;;;;15.65;72.83;101100.56;4967992;28;20074;-76
2022/11/08 10:10:26;;;;;;;;;;;;;;;16.43;71.68;101175.63;4966233;28;20239;-74
2022/11/08 10:13:11;;;;;;;;;;;;;;;16.42;71.60;101185.38;4967404;28;20382;-76
2022/11/08 10:15:53;;;;;;;33.60;19.35;;;;;;;16.68;70.98;101186.81;4968164;28;19945;-76
2022/11/08 10:18:30;;;;;;;28.02;17.58;;;;;;;16.68;71.22;101182.38;4956300;28;20066;-76
2022/11/08 10:21:01;;;;;;;21.80;18.48;;;;;;;16.85;70.97;101165.41;4967065;28;20057;-76
2022/11/08 10:23:41;;;;;;;34.65;18.73;;;;;;;16.30;71.08;101084.00;4968102;28;20046;-77
2022/11/08 10:26:23;;;;;;;26.08;18.15;;;;;;;15.94;70.72;101054.41;4967677;28;20047;-76
2022/11/08 10:29:41;;;;;;;32.42;17.95;;;;;;;16.66;70.28;101173.56;4968078;28;20105;-75
2022/11/08 10:32:20;;;;;;;26.30;18.83;;;;;;;16.83;70.12;101167.22;4964413;28;20055;-75
2022/11/08 10:35:10;;;;;;;36.92;19.55;;;;;;;16.81;70.07;101171.66;4950280;28;20057;-76
2022/11/08 10:37:36;;;;;;;35.85;20.95;;;;;;;16.92;70.33;101175.03;4968237;28;20070;-75
2022/11/08 10:40:08;;;;;;;31.92;20.35;;;;;;;17.02;69.90;101178.44;4967165;28;20054;-77
2022/11/08 10:42:42;;;;;;;33.97;21.98;;;;;;;17.01;69.96;101171.38;4965768;28;20098;-74
2022/11/08 10:45:09;;;;;;;32.67;19.92;;;;;;;16.97;69.97;101181.16;4974624;28;20490;-78
2022/11/08 10:47:36;;;;;;;33.20;19.05;;;;;;;16.40;69.80;101082.97;4967830;28;20927;-77
2022/11/08 10:50:12;;;;;;;38.17;21.73;;;;;;;16.31;69.90;101069.84;4955127;28;20078;-75
2022/11/08 10:53:01;;;;;;;34.28;20.20;;;;;;;17.06;70.57;101178.38;4962922;28;20050;-77
2022/11/08 10:55:29;;;;;;;38.95;22.52;;;;;;;16.96;69.83;101147.59;4954946;28;20074;-76
2022/11/08 10:57:56;;;;;;;26.60;17.52;;;;;;;16.82;70.66;101142.47;4966635;28;20062;-77
2022/11/08 11:00:22;;;;;;;36.25;22.77;;;;;;;17.08;69.96;101175.69;4966975;28;20039;-77
2022/11/08 11:02:53;;;;;;;24.98;21.38;;;;;;;16.50;69.95;101063.41;4967930;28;20038;-77
2022/11/08 11:05:35;;;;;;;33.80;20.90;;;;;;;16.52;69.58;101066.03;4966770;28;20072;-78
2022/11/08 11:08:07;;;;;;;31.90;18.38;;;;;;;17.11;69.58;101183.59;4966801;28;20509;-76
2022/11/08 11:10:53;;;;;;;26.95;18.95;;;;;;;17.11;69.82;101183.59;4964070;28;20094;-78
2022/11/08 11:13:18;;;;;;;27.02;18.73;;;;;;;17.06;69.98;101173.06;4966283;28;20057;-76
2022/11/08 11:15:57;;;;;;;29.77;18.33;;;;;;;17.06;70.63;101170.41;4967016;28;20047;-76
2022/11/08 11:18:49;;;;;;;32.17;19.27;;;;;;;16.92;70.57;101167.09;4967880;28;20039;-76
2022/11/08 11:21:21;;;;;;;30.77;19.05;;;;;;;16.93;70.35;101167.97;4944124;28;20085;-76
2022/11/08 11:23:46;;;;;;;29.65;20.40;;;;;;;17.03;70.00;101164.28;4967830;28;20035;-76
2022/11/08 11:26:37;;;;;;;35.97;17.67;;;;;;;16.79;71.51;101145.19;4966709;28;20055;-76
2022/11/08 11:29:03;;;;;;;25.63;18.80;;;;;;;16.99;70.79;101165.22;4941596;28;20462;-77
2022/11/08 11:31:37;;;;;;;24.98;18.90;;;;;;;16.82;70.93;101144.25;4958724;28;20061;-75
2022/11/08 11:34:34;;;;;;;29.13;17.00;;;;;;;16.57;71.98;101167.53;4948554;28;20133;-75